createdAt,value
2018-01-10T00:03:42.154Z,18.84
2018-01-10T00:08:42.071Z,18.89
2018-01-10T00:13:42.011Z,18.89
2018-01-10T00:18:41.939Z,18.78
2018-01-10T00:23:41.927Z,18.86
2018-01-10T00:28:41.778Z,18.75
2018-01-10T00:33:41.699Z,18.78
2018-01-10T00:38:41.631Z,18.76
2018-01-10T00:43:41.573Z,18.63
2018-01-10T00:48:41.503Z,18.63
2018-01-10T00:53:41.517Z,18.53
2018-01-10T00:58:41.335Z,18.53
2018-01-10T01:03:41.259Z,18.41
2018-01-10T01:08:41.187Z,18.47
2018-01-10T01:13:41.121Z,18.44
2018-01-10T01:18:41.049Z,18.42
2018-01-10T01:23:40.957Z,18.34
2018-01-10T01:28:40.876Z,18.31
2018-01-10T01:33:40.813Z,18.32
2018-01-10T01:38:40.765Z,18.26
2018-01-10T01:43:40.654Z,18.26
2018-01-10T01:48:40.587Z,18.24
2018-01-10T01:53:40.492Z,18.21
2018-01-10T01:58:40.425Z,18.2
2018-01-10T02:03:40.347Z,18.14
2018-01-10T02:08:40.273Z,18.11
2018-01-10T02:13:40.212Z,18.06
2018-01-10T02:18:40.120Z,18.11
2018-01-10T02:23:40.066Z,18.14
2018-01-10T02:28:39.965Z,18.02
2018-01-10T02:33:39.935Z,18.05
2018-01-10T02:38:39.811Z,18.08
2018-01-10T02:43:39.749Z,17.99
2018-01-10T02:48:39.746Z,17.98
2018-01-10T02:53:39.595Z,17.99
2018-01-10T02:58:39.519Z,18.02
2018-01-10T03:03:39.493Z,17.95
2018-01-10T03:08:39.359Z,17.96
2018-01-10T03:13:39.296Z,18.01
2018-01-10T03:18:39.317Z,17.96
2018-01-10T03:23:39.133Z,18.1
2018-01-10T03:28:39.072Z,18.11
2018-01-10T03:33:38.980Z,18.03
2018-01-10T03:38:38.919Z,18.1
2018-01-10T03:43:38.838Z,18.06
2018-01-10T03:48:38.824Z,18.02
2018-01-10T03:53:38.682Z,18.1
2018-01-10T03:58:38.632Z,18.08
2018-01-10T04:03:38.538Z,18.13
2018-01-10T04:08:38.465Z,18.02
2018-01-10T04:13:38.432Z,18.01
2018-01-10T04:18:38.316Z,17.94
2018-01-10T04:23:38.306Z,18.01
2018-01-10T04:28:38.154Z,17.87
2018-01-10T04:33:38.086Z,17.86
2018-01-10T04:38:38.007Z,17.79
2018-01-10T04:43:37.928Z,17.81
2018-01-10T04:48:37.887Z,17.76
2018-01-10T04:53:37.786Z,17.63
2018-01-10T04:58:37.678Z,17.69
2018-01-10T05:03:37.607Z,17.57
2018-01-10T05:08:37.545Z,17.73
2018-01-10T05:13:37.510Z,17.65
2018-01-10T05:18:37.440Z,17.65
2018-01-10T05:23:37.025Z,17.58
2018-01-10T05:28:37.199Z,17.62
2018-01-10T05:33:37.125Z,17.54
2018-01-10T05:38:37.039Z,17.54
2018-01-10T05:43:36.965Z,17.65
2018-01-10T05:48:36.622Z,17.69
2018-01-10T05:53:36.793Z,17.57
2018-01-10T05:58:36.726Z,17.54
2018-01-10T06:03:36.374Z,17.52
2018-01-10T06:08:36.549Z,17.45
2018-01-10T06:13:36.241Z,17.43
2018-01-10T06:18:36.391Z,17.49
2018-01-10T06:23:36.298Z,17.47
2018-01-10T06:28:36.222Z,17.52
2018-01-10T06:33:36.163Z,17.65
2018-01-10T06:38:36.072Z,17.66
2018-01-10T06:43:36.010Z,17.83
2018-01-10T06:48:35.962Z,17.99
2018-01-10T06:53:35.828Z,18.02
2018-01-10T06:58:35.520Z,18.19
2018-01-10T07:03:35.722Z,18.27
2018-01-10T07:08:35.650Z,18.42
2018-01-10T07:13:35.513Z,18.44
2018-01-10T07:18:35.453Z,18.56
2018-01-10T07:23:35.397Z,18.53
2018-01-10T07:28:35.320Z,18.5
2018-01-10T07:33:35.221Z,18.56
2018-01-10T07:38:35.235Z,18.61
2018-01-10T07:43:35.084Z,18.49
2018-01-10T07:48:35.002Z,18.56
2018-01-10T07:53:34.924Z,18.51
2018-01-10T07:58:34.854Z,18.5
2018-01-10T08:03:34.786Z,18.6
2018-01-10T08:08:34.701Z,18.74
2018-01-10T08:13:34.639Z,18.75
2018-01-10T08:18:34.576Z,18.76
2018-01-10T08:23:34.484Z,18.82
2018-01-10T08:28:34.407Z,18.86
2018-01-10T08:33:34.336Z,18.87
2018-01-10T08:38:34.274Z,18.86
2018-01-10T08:43:34.263Z,18.89
2018-01-10T08:48:34.137Z,18.86
2018-01-10T08:53:34.034Z,18.76
2018-01-10T08:58:33.953Z,18.72
2018-01-10T09:03:33.981Z,18.84
2018-01-10T09:08:33.814Z,18.84
2018-01-10T09:13:33.747Z,18.75
2018-01-10T09:18:33.671Z,18.76
2018-01-10T09:23:33.331Z,18.78
2018-01-10T09:28:33.512Z,18.82
2018-01-10T09:33:33.435Z,18.87
2018-01-10T09:38:33.655Z,18.87
2018-01-10T09:43:33.277Z,18.82
2018-01-10T09:48:33.207Z,18.79
2018-01-10T09:53:33.135Z,18.82
2018-01-10T09:58:33.059Z,18.79
2018-01-10T10:03:32.988Z,18.86
2018-01-10T10:08:32.921Z,18.94
2018-01-10T10:13:32.863Z,18.89
2018-01-10T10:18:32.758Z,18.89
2018-01-10T10:23:32.707Z,18.99
2018-01-10T10:28:32.613Z,18.97
2018-01-10T10:33:32.549Z,19.02
2018-01-10T10:38:32.463Z,18.99
2018-01-10T10:43:32.482Z,19.16
2018-01-10T10:48:32.340Z,19.28
2018-01-10T10:53:32.253Z,19.37
2018-01-10T10:58:32.181Z,19.31
2018-01-10T11:03:32.125Z,19.43
2018-01-10T11:08:32.050Z,19.4
2018-01-10T11:13:31.974Z,19.37
2018-01-10T11:18:31.902Z,19.34
2018-01-10T11:23:31.808Z,19.35
2018-01-10T11:28:31.800Z,19.24
2018-01-10T11:33:31.673Z,19.25
2018-01-10T11:38:31.702Z,19.25
2018-01-10T11:43:31.530Z,19.17
2018-01-10T11:48:31.603Z,19.07
2018-01-10T11:53:31.453Z,19.06
2018-01-10T11:58:31.317Z,19.05
2018-01-10T12:03:31.274Z,19.02
2018-01-10T12:08:31.172Z,18.86
2018-01-10T12:13:31.170Z,18.97
2018-01-10T12:18:31.177Z,18.96
2018-01-10T12:23:31.032Z,18.99
2018-01-10T12:28:30.875Z,18.93
2018-01-10T12:33:30.833Z,18.91
2018-01-10T12:38:30.739Z,18.76
2018-01-10T12:43:30.655Z,18.78
2018-01-10T12:48:30.335Z,18.86
2018-01-10T12:53:30.534Z,18.89
2018-01-10T12:58:30.452Z,18.91
2018-01-10T13:03:30.366Z,19.06
2018-01-10T13:08:30.363Z,18.94
2018-01-10T13:13:30.324Z,18.87
2018-01-10T13:18:29.883Z,18.84
2018-01-10T13:23:30.221Z,18.76
2018-01-10T13:28:30.082Z,18.86
2018-01-10T13:33:29.907Z,18.97
2018-01-10T13:38:29.587Z,19.25
2018-01-10T13:43:29.774Z,19.32
2018-01-10T13:48:29.715Z,19.52
2018-01-10T13:53:29.697Z,19.6
2018-01-10T13:58:29.557Z,19.67
2018-01-10T14:03:29.529Z,19.65
2018-01-10T14:08:29.427Z,19.64
2018-01-10T14:13:29.111Z,19.68
2018-01-10T14:18:29.292Z,19.68
2018-01-10T14:23:29.217Z,19.68
2018-01-10T14:28:29.166Z,19.65
2018-01-10T14:33:29.065Z,19.68
2018-01-10T14:38:29.000Z,19.82
2018-01-10T14:43:28.947Z,19.9
2018-01-10T14:48:28.861Z,19.97
2018-01-10T14:53:28.792Z,20.01
2018-01-10T14:58:28.780Z,19.98
2018-01-10T15:03:28.665Z,20
2018-01-10T15:08:28.430Z,20.01
2018-01-10T15:13:28.551Z,19.83
2018-01-10T15:18:28.536Z,19.86
2018-01-10T15:23:28.405Z,19.87
2018-01-10T15:28:28.075Z,19.85
2018-01-10T15:33:28.409Z,19.92
2018-01-10T15:38:28.186Z,19.97
2018-01-10T15:43:28.114Z,19.9
2018-01-10T15:48:28.051Z,19.95
2018-01-10T15:53:27.994Z,20.05
2018-01-10T15:58:27.916Z,20.01
2018-01-10T16:03:27.608Z,20.01
2018-01-10T16:08:27.784Z,19.87
2018-01-10T16:13:27.756Z,19.93
2018-01-10T16:18:27.148Z,20.01
2018-01-10T16:23:27.606Z,20.01
2018-01-10T16:28:27.522Z,20.05
2018-01-10T16:33:27.460Z,19.97
2018-01-10T16:38:27.400Z,20.05
2018-01-10T16:43:27.337Z,19.97
2018-01-10T16:48:27.264Z,19.93
2018-01-10T16:53:27.182Z,19.85
2018-01-10T16:58:27.110Z,19.92
2018-01-10T17:03:27.045Z,20
2018-01-10T17:08:26.972Z,20.01
2018-01-10T17:13:26.906Z,20.1
2018-01-10T17:18:26.845Z,20.08
2018-01-10T17:23:26.509Z,20.1
2018-01-10T17:28:26.702Z,20.07
2018-01-10T17:33:26.379Z,19.93
2018-01-10T17:38:26.598Z,19.98
2018-01-10T17:43:26.513Z,19.93
2018-01-10T17:48:26.524Z,19.98
2018-01-10T17:53:26.447Z,20
2018-01-10T17:58:26.336Z,20.08
2018-01-10T18:03:26.231Z,20.04
2018-01-10T18:08:26.233Z,20.1
2018-01-10T18:13:26.107Z,20.05
2018-01-10T18:18:26.129Z,20.07
2018-01-10T18:23:26.103Z,19.93
2018-01-10T18:28:25.918Z,19.86
2018-01-10T18:33:25.825Z,19.86
2018-01-10T18:38:25.769Z,19.97
2018-01-10T18:43:25.717Z,20.02
2018-01-10T18:48:25.627Z,20.12
2018-01-10T18:53:25.687Z,20.27
2018-01-10T18:58:25.492Z,20.23
2018-01-10T19:03:25.431Z,20.26
2018-01-10T19:08:25.376Z,20.19
2018-01-10T19:13:25.303Z,20.08
2018-01-10T19:18:25.238Z,20.19
2018-01-10T19:23:25.177Z,20.18
2018-01-10T19:28:25.112Z,20.25
2018-01-10T19:33:25.040Z,20.26
2018-01-10T19:38:24.996Z,20.46
2018-01-10T19:43:24.917Z,20.44
2018-01-10T19:48:24.857Z,20.63
2018-01-10T19:53:24.524Z,20.48
2018-01-10T19:58:24.744Z,20.57
2018-01-10T20:03:24.670Z,20.64
2018-01-10T20:08:24.618Z,20.64
2018-01-10T20:13:24.614Z,20.66
2018-01-10T20:18:24.469Z,20.76
2018-01-10T20:23:24.416Z,20.79
2018-01-10T20:28:24.352Z,20.76
2018-01-10T20:33:24.293Z,20.76
2018-01-10T20:38:24.313Z,20.76
2018-01-10T20:43:24.278Z,20.67
2018-01-10T20:48:24.100Z,20.68
2018-01-10T20:53:24.028Z,20.63
2018-01-10T20:58:23.992Z,20.57
2018-01-10T21:03:23.932Z,20.57
2018-01-10T21:08:23.841Z,20.61
2018-01-10T21:13:23.878Z,20.57
2018-01-10T21:18:23.713Z,20.63
2018-01-10T21:23:23.643Z,20.58
2018-01-10T21:28:23.619Z,20.48
2018-01-10T21:33:23.543Z,20.53
2018-01-10T21:38:23.450Z,20.54
2018-01-10T21:43:23.433Z,20.51
2018-01-10T21:48:23.325Z,20.48
2018-01-10T21:53:23.264Z,20.41
2018-01-10T21:58:22.963Z,20.44
2018-01-10T22:03:23.122Z,20.53
2018-01-10T22:08:23.072Z,20.42
2018-01-10T22:13:22.993Z,20.4
2018-01-10T22:18:22.960Z,20.4
2018-01-10T22:23:22.920Z,20.32
2018-01-10T22:28:22.915Z,20.27
2018-01-10T22:33:22.755Z,20.27
2018-01-10T22:38:24.511Z,20.19
2018-01-10T22:43:22.612Z,19.97
2018-01-10T22:48:22.618Z,19.86
2018-01-10T22:53:22.475Z,19.79
2018-01-10T22:58:22.394Z,19.72
2018-01-10T23:03:22.315Z,19.7
2018-01-10T23:08:22.243Z,19.6
2018-01-10T23:13:22.192Z,19.56
2018-01-10T23:18:22.123Z,19.5
2018-01-10T23:23:22.169Z,19.4
2018-01-10T23:28:21.992Z,19.28
2018-01-10T23:33:21.897Z,19.25
2018-01-10T23:38:21.875Z,19.2
2018-01-10T23:43:21.755Z,19.06
2018-01-10T23:48:21.695Z,18.99
2018-01-10T23:53:21.606Z,19.02
2018-01-10T23:58:21.543Z,18.91
